首页
METAR-TAF:

METAR-TAF

机场 :

阿必尚國際機場

阿比让, 科特迪瓦

纬度: 05-15N, 经度: 003-56W, 海拔: 7米

当前天气观测

该预报发布于23分钟前的23:30 UTC
风速7节,风向南转西南
温度 28°C
湿度 84%
气压 1011 hPa
能见度10公里或以上
散云层高于1200英尺

METAR: DIAP 212330Z 21007KT 9999 SCT012 28/25 Q1011 NOSIG

时间: 23:53 (23:53 UTC)

预报

该预报发布于53分钟前的23:00 UTC
预报有效从22日的 00点(UTC)到 23日的 06点(UTC)
风速10节,风向南转西南
能見度: 8000
散云层高于1200英尺
多云层高于4000英尺
短暂存在
从 22日的 03点(UTC)到 22日的 09点(UTC)
多云层高于1100英尺
多云层高于4000英尺
几率 30% :
短暂存在
从 22日的 04点(UTC)到 22日的 08点(UTC)
能見度: 4000
多云层高于1000英尺
多云层高于3000英尺

TAF: DIAP 212300Z 2200/2306 20010KT 8000 SCT012 BKN040 TEMPO 2203/2209 BKN011 BKN040 PROB30 TEMPO 2204/2208 4000 RA BKN010 BKN030

超过4000个机场的气象观测和天气预报(METAR&TAF报告)。

可查询的气象台以黄色和红色小点在地图上表示。

将鼠标移到小点上方,可查看气象台名称。

然后点击查看天气观测和预报。

如需切换地图:点击带黑十字的绿色按钮放大地图;点击带横线的绿色按钮缩小地图;或者点击绿色箭头查看邻近地区的地图。


METAR-TAF: